Longvann — PBYB — position and weather

sailwx.info

Track history (hours):
 
Tides and Currents Weather Stations Pressure Air Temp Water Temp Dewpoint Dewpoint Depression Visibility Wind Speed Wind Dir Waves Ship Positions

Longvann

Last reported at 2017-Dec-10 13:54 UTC. Time now 2017-Dec-11 20:46 UTC.
Position N 54°57' E 010°09'.

Length 114 m; draft 4.5 m.

Type: Cargo ship. MMSI: 246670000.

Date/timePositionNaut miles runAvg speedWind from/ knotsBaromVisibWave heightAir tempDewpointWater temp
2017-Dec-10 13:54N 54°57' E 010°09'510.9
2017-Dec-10 13:25N 54°53' E 010°12'610.9
2017-Dec-10 12:54N 54°47' E 010°14'611.1
2017-Dec-10 12:20N 54°42' E 010°20'411.0
2017-Dec-10 12:00N 54°39' E 010°23'510.8
2017-Dec-10 11:30N 54°36' E 010°31'510.0
2017-Dec-10 11:00N 54°35' E 010°40'5 9.9
2017-Dec-10 10:30N 54°35' E 010°48'5 9.7
2017-Dec-10 10:00N 54°36' E 010°56'5 9.2
2017-Dec-10 09:30N 54°36' E 011°04'4 8.8
2017-Dec-10 09:00N 54°36' E 011°12'5 9.4
2017-Dec-10 08:30N 54°34' E 011°19'5 9.0
2017-Dec-10 08:00N 54°32' E 011°26'5 9.3
2017-Dec-10 07:30N 54°30' E 011°34'4 8.9
2017-Dec-10 07:00N 54°28' E 011°41'5 9.1
2017-Dec-10 06:30N 54°26' E 011°48'9 8.7
2017-Dec-10 05:30N 54°26' E 012°03'4 8.4
2017-Dec-10 05:00N 54°28' E 012°10'4 8.5
2017-Dec-10 04:30N 54°31' E 012°12'4 8.6
2017-Dec-10 04:00N 54°36' E 012°14'65 8.4
2017-Dec-09 20:14N 55°03' E 013°58'6 8.5
2017-Dec-09 19:34N 55°06' E 014°06'1 8.7
2017-Dec-09 19:28N 55°06' E 014°07'4 8.4
2017-Dec-09 18:56N 55°10' E 014°12'4 8.5
2017-Dec-09 18:28N 55°13' E 014°16'4 8.8
2017-Dec-09 17:59N 55°16' E 014°21'4 9.0
2017-Dec-09 17:30N 55°20' E 014°26'5 9.6
2017-Dec-09 17:00N 55°23' E 014°31'5 9.6
2017-Dec-09 16:30N 55°27' E 014°37'7 9.7
2017-Dec-09 15:48N 55°30' E 014°47'3 9.6
2017-Dec-09 15:28N 55°32' E 014°52'6 9.4
2017-Dec-09 14:52N 55°35' E 015°01'3 9.4
2017-Dec-09 14:30N 55°36' E 015°06'4 8.8
2017-Dec-09 14:00N 55°38' E 015°13'4 8.6
2017-Dec-09 13:30N 55°41' E 015°19'4 8.4
2017-Dec-09 13:00N 55°43' E 015°26'4 7.9
2017-Dec-09 12:30N 55°45' E 015°32'4 7.9
2017-Dec-09 12:00N 55°47' E 015°38'3 6.9
2017-Dec-09 11:30N 55°48' E 015°43'3 6.9
2017-Dec-09 11:00N 55°50' E 015°48'3 5.7
2017-Dec-09 10:30N 55°51' E 015°53'2 4.7
2017-Dec-09 10:00N 55°53' E 015°57'2 4.7
2017-Dec-09 09:30N 55°54' E 015°60'2 4.4
2017-Dec-09 09:00N 55°55' E 016°03'2 4.1
2017-Dec-09 08:30N 55°56' E 016°07'2 3.8
2017-Dec-09 08:00N 55°57' E 016°10'2 3.8
2017-Dec-09 07:30N 55°58' E 016°12'2 4.0
2017-Dec-09 07:00N 55°59' E 016°16'2 4.7
2017-Dec-09 06:30N 56°00' E 016°19'3 5.2
2017-Dec-09 06:00N 56°01' E 016°23'3 5.7
2017-Dec-09 05:30N 56°03' E 016°28'3 6.2
2017-Dec-09 05:00N 56°04' E 016°33'  
2017-Dec-04 10:28N 56°02' E 012°41'0 0.0
2017-Dec-04 09:58N 56°02' E 012°41'0 0.0
2017-Dec-04 09:28N 56°02' E 012°41'0 0.0
2017-Dec-04 08:58N 56°02' E 012°41'0 0.0
2017-Dec-04 08:28N 56°02' E 012°41'0 0.0
2017-Dec-04 07:58N 56°02' E 012°41'0 0.0
2017-Dec-04 07:28N 56°02' E 012°41'0 0.0
2017-Dec-04 06:58N 56°02' E 012°41'0 0.0
2017-Dec-04 06:28N 56°02' E 012°41'0 0.0
2017-Dec-04 05:58N 56°02' E 012°41'0 0.0
2017-Dec-04 05:28N 56°02' E 012°41'0 0.0
2017-Dec-04 04:58N 56°02' E 012°41'0 0.0
2017-Dec-04 04:25N 56°02' E 012°41'0 0.0
2017-Dec-04 03:58N 56°02' E 012°41'0 0.0
2017-Dec-04 03:28N 56°02' E 012°41'0 0.0
2017-Dec-04 02:58N 56°02' E 012°41'0 0.0
2017-Dec-04 02:28N 56°02' E 012°41'0 0.0
2017-Dec-04 01:58N 56°02' E 012°41'0 0.0
2017-Dec-04 01:28N 56°02' E 012°41'0 0.0
2017-Dec-04 00:58N 56°02' E 012°41'0 0.0
2017-Dec-04 00:28N 56°02' E 012°41'0 0.0
2017-Dec-03 23:58N 56°02' E 012°41'0 0.0
2017-Dec-03 23:28N 56°02' E 012°41'0 0.0
2017-Dec-03 22:58N 56°02' E 012°41'0 0.0
2017-Dec-03 22:28N 56°02' E 012°41'0 0.0
2017-Dec-03 21:58N 56°02' E 012°41'0 0.0
2017-Dec-03 21:28N 56°02' E 012°41'0 0.0
2017-Dec-03 20:58N 56°02' E 012°41'0 0.0
2017-Dec-03 20:28N 56°02' E 012°41'0 0.0
2017-Dec-03 19:58N 56°02' E 012°41'0 0.0
2017-Dec-03 19:28N 56°02' E 012°41'0 0.0
2017-Dec-03 18:58N 56°02' E 012°41'0 0.0
2017-Dec-03 18:28N 56°02' E 012°41'0 0.0
2017-Dec-03 17:58N 56°02' E 012°41'0 0.0
2017-Dec-03 17:28N 56°02' E 012°41'0 0.0
2017-Dec-03 16:58N 56°02' E 012°41'0 0.0
2017-Dec-03 16:28N 56°02' E 012°41'0 0.0
2017-Dec-03 15:58N 56°02' E 012°41'0 0.0
2017-Dec-03 15:28N 56°02' E 012°41'0 0.0
2017-Dec-03 14:58N 56°02' E 012°41'0 0.0
2017-Dec-03 14:28N 56°02' E 012°41'0 0.0
2017-Dec-03 13:58N 56°02' E 012°41'0 0.0
2017-Dec-03 13:28N 56°02' E 012°41'0 0.0
2017-Dec-03 12:58N 56°02' E 012°41'0 0.0
2017-Dec-03 12:28N 56°02' E 012°41'0 0.0
2017-Dec-03 11:58N 56°02' E 012°41'0 0.0
2017-Dec-03 11:28N 56°02' E 012°41'0 0.0
2017-Dec-03 10:58N 56°02' E 012°41'0 0.0
2017-Dec-03 10:28N 56°02' E 012°41'0 0.0
2017-Dec-03 09:58N 56°02' E 012°41'0 0.0
2017-Dec-03 09:28N 56°02' E 012°41'0 0.0
2017-Dec-03 08:58N 56°02' E 012°41'0 0.0
2017-Dec-03 08:28N 56°02' E 012°41'0 0.0
2017-Dec-03 07:58N 56°02' E 012°41'0 0.0
2017-Dec-03 07:25N 56°02' E 012°41'0 0.0
2017-Dec-03 06:58N 56°02' E 012°41'0 0.0
2017-Dec-03 06:28N 56°02' E 012°41'0 0.0
2017-Dec-03 05:58N 56°02' E 012°41'0 0.0
2017-Dec-03 05:28N 56°02' E 012°41'0 0.0
2017-Dec-03 04:58N 56°02' E 012°41'0 0.0
2017-Dec-03 04:28N 56°02' E 012°41'0 0.0
2017-Dec-03 03:58N 56°02' E 012°41'0 0.0
2017-Dec-03 03:28N 56°02' E 012°41'0 0.0
2017-Dec-03 02:58N 56°02' E 012°41'0 0.0
2017-Dec-03 02:28N 56°02' E 012°41'0 0.0
2017-Dec-03 01:58N 56°02' E 012°41'0 0.0
2017-Dec-03 01:28N 56°02' E 012°41'0 0.0
2017-Dec-03 00:58N 56°02' E 012°41'0 0.0
2017-Dec-03 00:28N 56°02' E 012°41'0 0.0
2017-Dec-02 23:58N 56°02' E 012°41'0 0.0
2017-Dec-02 23:28N 56°02' E 012°41'0 0.0
2017-Dec-02 22:58N 56°02' E 012°41'0 0.0
2017-Dec-02 22:28N 56°02' E 012°41'0 0.0
2017-Dec-02 21:58N 56°02' E 012°41'0 0.1
2017-Dec-02 21:30N 56°02' E 012°41'2 3.7
2017-Dec-02 21:00N 55°60' E 012°42'4 8.0
2017-Dec-02 20:31N 55°56' E 012°44'4 8.6
2017-Dec-02 20:00N 55°52' E 012°45'5 9.5
2017-Dec-02 19:30N 55°47' E 012°43'5 9.4
2017-Dec-02 19:00N 55°43' E 012°41'510.4
2017-Dec-02 18:30N 55°38' E 012°42'510.2
2017-Dec-02 18:01N 55°33' E 012°43'510.0
2017-Dec-02 17:30N 55°28' E 012°43'5 9.9
2017-Dec-02 17:00N 55°23' E 012°41'5 9.4
2017-Dec-02 16:30N 55°18' E 012°43'5 9.9
2017-Dec-02 16:00N 55°16' E 012°51'5 9.6
2017-Dec-02 15:30N 55°15' E 012°60'5 9.7
2017-Dec-02 15:00N 55°15' E 013°08'28 9.7
2017-Dec-02 12:10N 55°14' E 013°57'12 9.3
2017-Dec-02 10:51N 55°14' E 014°18'4 9.9
2017-Dec-02 10:28N 55°17' E 014°22'510.2
2017-Dec-02 10:00N 55°21' E 014°27'510.0
2017-Dec-02 09:30N 55°25' E 014°33'6 9.6
2017-Dec-02 08:55N 55°28' E 014°40'4 9.6
2017-Dec-02 08:30N 55°30' E 014°47'5 9.6
2017-Dec-02 08:00N 55°33' E 014°54'5 9.6
2017-Dec-02 07:30N 55°35' E 015°01'5 9.8
2017-Dec-02 06:58N 55°38' E 015°09'510.2
2017-Dec-02 06:30N 55°40' E 015°17'510.2
2017-Dec-02 06:00N 55°43' E 015°25'510.1
2017-Dec-02 05:30N 55°45' E 015°32'510.0
2017-Dec-02 05:00N 55°47' E 015°40'5 9.9
2017-Dec-02 04:30N 55°50' E 015°48'5 9.8
2017-Dec-02 04:00N 55°52' E 015°55'510.0
2017-Dec-02 03:30N 55°55' E 016°03'510.0
2017-Dec-02 03:00N 55°57' E 016°11'510.2
2017-Dec-02 02:30N 55°60' E 016°19'510.3
2017-Dec-02 02:00N 56°02' E 016°27'510.2
2017-Dec-02 01:30N 56°05' E 016°35'  
Track history (hours):
 
Tides and Currents Weather Stations Pressure Air Temp Water Temp Dewpoint Dewpoint Depression Visibility Wind Speed Wind Dir Waves Ship Positions

Longvann

Last reported at 2017-Dec-10 13:54 UTC. Time now 2017-Dec-11 20:46 UTC.
Position N 54°57' E 010°09'.

Length 114 m; draft 4.5 m.

Type: Cargo ship. MMSI: 246670000.

Date/timePositionNaut miles runAvg speedWind from/ knotsBaromVisibWave heightAir tempDewpointWater temp
2017-Dec-10 13:54N 54°57' E 010°09'510.9
2017-Dec-10 13:25N 54°53' E 010°12'610.9
2017-Dec-10 12:54N 54°47' E 010°14'611.1
2017-Dec-10 12:20N 54°42' E 010°20'411.0
2017-Dec-10 12:00N 54°39' E 010°23'510.8
2017-Dec-10 11:30N 54°36' E 010°31'510.0
2017-Dec-10 11:00N 54°35' E 010°40'5 9.9
2017-Dec-10 10:30N 54°35' E 010°48'5 9.7
2017-Dec-10 10:00N 54°36' E 010°56'5 9.2
2017-Dec-10 09:30N 54°36' E 011°04'4 8.8
2017-Dec-10 09:00N 54°36' E 011°12'5 9.4
2017-Dec-10 08:30N 54°34' E 011°19'5 9.0
2017-Dec-10 08:00N 54°32' E 011°26'5 9.3
2017-Dec-10 07:30N 54°30' E 011°34'4 8.9
2017-Dec-10 07:00N 54°28' E 011°41'5 9.1
2017-Dec-10 06:30N 54°26' E 011°48'9 8.7
2017-Dec-10 05:30N 54°26' E 012°03'4 8.4
2017-Dec-10 05:00N 54°28' E 012°10'4 8.5
2017-Dec-10 04:30N 54°31' E 012°12'4 8.6
2017-Dec-10 04:00N 54°36' E 012°14'65 8.4
2017-Dec-09 20:14N 55°03' E 013°58'6 8.5
2017-Dec-09 19:34N 55°06' E 014°06'1 8.7
2017-Dec-09 19:28N 55°06' E 014°07'4 8.4
2017-Dec-09 18:56N 55°10' E 014°12'4 8.5
2017-Dec-09 18:28N 55°13' E 014°16'4 8.8
2017-Dec-09 17:59N 55°16' E 014°21'4 9.0
2017-Dec-09 17:30N 55°20' E 014°26'5 9.6
2017-Dec-09 17:00N 55°23' E 014°31'5 9.6
2017-Dec-09 16:30N 55°27' E 014°37'7 9.7
2017-Dec-09 15:48N 55°30' E 014°47'3 9.6
2017-Dec-09 15:28N 55°32' E 014°52'6 9.4
2017-Dec-09 14:52N 55°35' E 015°01'3 9.4
2017-Dec-09 14:30N 55°36' E 015°06'4 8.8
2017-Dec-09 14:00N 55°38' E 015°13'4 8.6
2017-Dec-09 13:30N 55°41' E 015°19'4 8.4
2017-Dec-09 13:00N 55°43' E 015°26'4 7.9
2017-Dec-09 12:30N 55°45' E 015°32'4 7.9
2017-Dec-09 12:00N 55°47' E 015°38'3 6.9
2017-Dec-09 11:30N 55°48' E 015°43'3 6.9
2017-Dec-09 11:00N 55°50' E 015°48'3 5.7
2017-Dec-09 10:30N 55°51' E 015°53'2 4.7
2017-Dec-09 10:00N 55°53' E 015°57'2 4.7
2017-Dec-09 09:30N 55°54' E 015°60'2 4.4
2017-Dec-09 09:00N 55°55' E 016°03'2 4.1
2017-Dec-09 08:30N 55°56' E 016°07'2 3.8
2017-Dec-09 08:00N 55°57' E 016°10'2 3.8
2017-Dec-09 07:30N 55°58' E 016°12'2 4.0
2017-Dec-09 07:00N 55°59' E 016°16'2 4.7
2017-Dec-09 06:30N 56°00' E 016°19'3 5.2
2017-Dec-09 06:00N 56°01' E 016°23'3 5.7
2017-Dec-09 05:30N 56°03' E 016°28'3 6.2
2017-Dec-09 05:00N 56°04' E 016°33'  
2017-Dec-04 10:28N 56°02' E 012°41'0 0.0
2017-Dec-04 09:58N 56°02' E 012°41'0 0.0
2017-Dec-04 09:28N 56°02' E 012°41'0 0.0
2017-Dec-04 08:58N 56°02' E 012°41'0 0.0
2017-Dec-04 08:28N 56°02' E 012°41'0 0.0
2017-Dec-04 07:58N 56°02' E 012°41'0 0.0
2017-Dec-04 07:28N 56°02' E 012°41'0 0.0
2017-Dec-04 06:58N 56°02' E 012°41'0 0.0
2017-Dec-04 06:28N 56°02' E 012°41'0 0.0
2017-Dec-04 05:58N 56°02' E 012°41'0 0.0
2017-Dec-04 05:28N 56°02' E 012°41'0 0.0
2017-Dec-04 04:58N 56°02' E 012°41'0 0.0
2017-Dec-04 04:25N 56°02' E 012°41'0 0.0
2017-Dec-04 03:58N 56°02' E 012°41'0 0.0
2017-Dec-04 03:28N 56°02' E 012°41'0 0.0
2017-Dec-04 02:58N 56°02' E 012°41'0 0.0
2017-Dec-04 02:28N 56°02' E 012°41'0 0.0
2017-Dec-04 01:58N 56°02' E 012°41'0 0.0
2017-Dec-04 01:28N 56°02' E 012°41'0 0.0
2017-Dec-04 00:58N 56°02' E 012°41'0 0.0
2017-Dec-04 00:28N 56°02' E 012°41'0 0.0
2017-Dec-03 23:58N 56°02' E 012°41'0 0.0
2017-Dec-03 23:28N 56°02' E 012°41'0 0.0
2017-Dec-03 22:58N 56°02' E 012°41'0 0.0
2017-Dec-03 22:28N 56°02' E 012°41'0 0.0
2017-Dec-03 21:58N 56°02' E 012°41'0 0.0
2017-Dec-03 21:28N 56°02' E 012°41'0 0.0
2017-Dec-03 20:58N 56°02' E 012°41'0 0.0
2017-Dec-03 20:28N 56°02' E 012°41'0 0.0
2017-Dec-03 19:58N 56°02' E 012°41'0 0.0
2017-Dec-03 19:28N 56°02' E 012°41'0 0.0
2017-Dec-03 18:58N 56°02' E 012°41'0 0.0
2017-Dec-03 18:28N 56°02' E 012°41'0 0.0
2017-Dec-03 17:58N 56°02' E 012°41'0 0.0
2017-Dec-03 17:28N 56°02' E 012°41'0 0.0
2017-Dec-03 16:58N 56°02' E 012°41'0 0.0
2017-Dec-03 16:28N 56°02' E 012°41'0 0.0
2017-Dec-03 15:58N 56°02' E 012°41'0 0.0
2017-Dec-03 15:28N 56°02' E 012°41'0 0.0
2017-Dec-03 14:58N 56°02' E 012°41'0 0.0
2017-Dec-03 14:28N 56°02' E 012°41'0 0.0
2017-Dec-03 13:58N 56°02' E 012°41'0 0.0
2017-Dec-03 13:28N 56°02' E 012°41'0 0.0
2017-Dec-03 12:58N 56°02' E 012°41'0 0.0
2017-Dec-03 12:28N 56°02' E 012°41'0 0.0
2017-Dec-03 11:58N 56°02' E 012°41'0 0.0
2017-Dec-03 11:28N 56°02' E 012°41'0 0.0
2017-Dec-03 10:58N 56°02' E 012°41'0 0.0
2017-Dec-03 10:28N 56°02' E 012°41'0 0.0
2017-Dec-03 09:58N 56°02' E 012°41'0 0.0
2017-Dec-03 09:28N 56°02' E 012°41'0 0.0
2017-Dec-03 08:58N 56°02' E 012°41'0 0.0
2017-Dec-03 08:28N 56°02' E 012°41'0 0.0
2017-Dec-03 07:58N 56°02' E 012°41'0 0.0
2017-Dec-03 07:25N 56°02' E 012°41'0 0.0
2017-Dec-03 06:58N 56°02' E 012°41'0 0.0
2017-Dec-03 06:28N 56°02' E 012°41'0 0.0
2017-Dec-03 05:58N 56°02' E 012°41'0 0.0
2017-Dec-03 05:28N 56°02' E 012°41'0 0.0
2017-Dec-03 04:58N 56°02' E 012°41'0 0.0
2017-Dec-03 04:28N 56°02' E 012°41'0 0.0
2017-Dec-03 03:58N 56°02' E 012°41'0 0.0
2017-Dec-03 03:28N 56°02' E 012°41'0 0.0
2017-Dec-03 02:58N 56°02' E 012°41'0 0.0
2017-Dec-03 02:28N 56°02' E 012°41'0 0.0
2017-Dec-03 01:58N 56°02' E 012°41'0 0.0
2017-Dec-03 01:28N 56°02' E 012°41'0 0.0
2017-Dec-03 00:58N 56°02' E 012°41'0 0.0
2017-Dec-03 00:28N 56°02' E 012°41'0 0.0
2017-Dec-02 23:58N 56°02' E 012°41'0 0.0
2017-Dec-02 23:28N 56°02' E 012°41'0 0.0
2017-Dec-02 22:58N 56°02' E 012°41'0 0.0
2017-Dec-02 22:28N 56°02' E 012°41'0 0.0
2017-Dec-02 21:58N 56°02' E 012°41'0 0.1
2017-Dec-02 21:30N 56°02' E 012°41'2 3.7
2017-Dec-02 21:00N 55°60' E 012°42'4 8.0
2017-Dec-02 20:31N 55°56' E 012°44'4 8.6
2017-Dec-02 20:00N 55°52' E 012°45'5 9.5
2017-Dec-02 19:30N 55°47' E 012°43'5 9.4
2017-Dec-02 19:00N 55°43' E 012°41'510.4
2017-Dec-02 18:30N 55°38' E 012°42'510.2
2017-Dec-02 18:01N 55°33' E 012°43'510.0
2017-Dec-02 17:30N 55°28' E 012°43'5 9.9
2017-Dec-02 17:00N 55°23' E 012°41'5 9.4
2017-Dec-02 16:30N 55°18' E 012°43'5 9.9
2017-Dec-02 16:00N 55°16' E 012°51'5 9.6
2017-Dec-02 15:30N 55°15' E 012°60'5 9.7
2017-Dec-02 15:00N 55°15' E 013°08'28 9.7
2017-Dec-02 12:10N 55°14' E 013°57'12 9.3
2017-Dec-02 10:51N 55°14' E 014°18'4 9.9
2017-Dec-02 10:28N 55°17' E 014°22'510.2
2017-Dec-02 10:00N 55°21' E 014°27'510.0
2017-Dec-02 09:30N 55°25' E 014°33'6 9.6
2017-Dec-02 08:55N 55°28' E 014°40'4 9.6
2017-Dec-02 08:30N 55°30' E 014°47'5 9.6
2017-Dec-02 08:00N 55°33' E 014°54'5 9.6
2017-Dec-02 07:30N 55°35' E 015°01'5 9.8
2017-Dec-02 06:58N 55°38' E 015°09'510.2
2017-Dec-02 06:30N 55°40' E 015°17'510.2
2017-Dec-02 06:00N 55°43' E 015°25'510.1
2017-Dec-02 05:30N 55°45' E 015°32'510.0
2017-Dec-02 05:00N 55°47' E 015°40'5 9.9
2017-Dec-02 04:30N 55°50' E 015°48'5 9.8
2017-Dec-02 04:00N 55°52' E 015°55'510.0
2017-Dec-02 03:30N 55°55' E 016°03'510.0
2017-Dec-02 03:00N 55°57' E 016°11'510.2
2017-Dec-02 02:30N 55°60' E 016°19'510.3
2017-Dec-02 02:00N 56°02' E 016°27'510.2
2017-Dec-02 01:30N 56°05' E 016°35'  

Dump ship's entire track history